createdAt,value
2023-02-22T00:00:09.823Z,68.83
2023-02-22T00:03:54.900Z,69.03
2023-02-22T00:07:23.929Z,69.03
2023-02-22T00:10:52.850Z,69.17
2023-02-22T00:14:21.851Z,69.20
2023-02-22T00:17:49.219Z,68.82
2023-02-22T00:21:18.152Z,68.77
2023-02-22T00:24:47.054Z,68.78
2023-02-22T00:28:15.500Z,68.54
2023-02-22T00:31:42.413Z,68.28
2023-02-22T00:35:11.048Z,68.13
2023-02-22T00:38:37.592Z,68.24
2023-02-22T00:42:05.890Z,68.22
2023-02-22T00:45:34.386Z,68.07
2023-02-22T00:49:06.476Z,68.01
2023-02-22T00:52:33.067Z,68.22
2023-02-22T00:56:02.290Z,68.33
2023-02-22T00:59:31.419Z,68.54
2023-02-22T01:03:01.556Z,68.54
2023-02-22T01:06:29.563Z,68.88
2023-02-22T01:09:59.357Z,68.88
2023-02-22T01:13:26.236Z,68.99
2023-02-22T01:16:54.679Z,69.10
2023-02-22T01:20:23.101Z,69.40
2023-02-22T01:23:50.546Z,69.11
2023-02-22T01:27:18.103Z,69.36
2023-02-22T01:30:45.114Z,69.49
2023-02-22T01:34:15.506Z,69.11
2023-02-22T01:37:43.635Z,69.26
2023-02-22T01:41:10.788Z,69.22
2023-02-22T01:44:40.436Z,69.22
2023-02-22T01:48:13.372Z,69.08
2023-02-22T01:51:44.287Z,69.16
2023-02-22T01:55:11.274Z,68.70
2023-02-22T01:58:42.825Z,68.97
2023-02-22T02:02:09.971Z,68.62
2023-02-22T02:05:39.273Z,68.77
2023-02-22T02:09:12.259Z,68.71
2023-02-22T02:12:39.307Z,68.62
2023-02-22T02:16:06.396Z,68.61
2023-02-22T02:19:45.165Z,68.71
2023-02-22T02:23:35.849Z,68.89
2023-02-22T02:27:24.190Z,68.71
2023-02-22T02:31:36.234Z,68.55
2023-02-22T02:35:11.624Z,68.75
2023-02-22T02:38:45.992Z,68.95
2023-02-22T02:42:19.265Z,68.98
2023-02-22T02:45:51.041Z,68.78
2023-02-22T02:49:23.259Z,68.80
2023-02-22T02:52:54.521Z,69.13
2023-02-22T02:56:23.598Z,68.94
2023-02-22T02:59:51.608Z,68.93
2023-02-22T03:03:38.965Z,69.20
2023-02-22T03:07:30.072Z,69.44
2023-02-22T03:11:15.650Z,69.57
2023-02-22T03:14:56.048Z,69.59
2023-02-22T03:18:30.726Z,69.54
2023-02-22T03:22:04.920Z,69.69
2023-02-22T03:25:40.408Z,69.62
2023-02-22T03:29:12.198Z,69.72
2023-02-22T03:32:42.569Z,69.60
2023-02-22T03:36:15.715Z,69.42
2023-02-22T03:39:44.816Z,69.63
2023-02-22T03:43:15.910Z,69.68
2023-02-22T03:46:44.552Z,69.77
2023-02-22T03:50:16.606Z,69.77
2023-02-22T03:53:46.090Z,69.98
2023-02-22T03:57:17.597Z,70.13
2023-02-22T04:00:44.910Z,70.29
2023-02-22T04:04:11.446Z,70.28
2023-02-22T04:11:42.226Z,70.37
2023-02-22T04:15:14.122Z,70.23
2023-02-22T04:18:42.277Z,70.26
2023-02-22T04:22:09.159Z,70.03
2023-02-22T04:25:35.903Z,70.10
2023-02-22T04:29:10.571Z,70.02
2023-02-22T04:32:39.681Z,70.15
2023-02-22T04:36:08.939Z,69.94
2023-02-22T04:39:36.429Z,69.99
2023-02-22T04:43:03.653Z,70.15
2023-02-22T04:46:31.704Z,70.15
2023-02-22T04:50:00.576Z,70.02
2023-02-22T04:53:27.675Z,69.90
2023-02-22T04:56:55.600Z,69.90
2023-02-22T05:00:26.412Z,69.94
2023-02-22T05:03:59.570Z,69.94
2023-02-22T05:07:26.542Z,70.11
2023-02-22T05:10:52.774Z,70.29
2023-02-22T05:14:19.760Z,70.20
2023-02-22T05:17:46.767Z,70.28
2023-02-22T05:21:13.823Z,70.21
2023-02-22T05:24:44.352Z,70.29
2023-02-22T05:28:15.823Z,70.26
2023-02-22T05:31:42.746Z,70.18
2023-02-22T05:35:10.348Z,70.16
2023-02-22T05:38:43.471Z,70.18
2023-02-22T05:42:10.720Z,70.03
2023-02-22T05:45:37.646Z,69.91
2023-02-22T05:49:05.709Z,69.88
2023-02-22T05:52:32.113Z,69.85
2023-02-22T05:55:59.753Z,69.95
2023-02-22T05:59:28.121Z,70.11
2023-02-22T06:03:00.164Z,70.02
2023-02-22T06:06:26.715Z,69.95
2023-02-22T06:09:54.372Z,70.03
2023-02-22T06:13:20.658Z,70.03
2023-02-22T06:16:53.204Z,70.09
2023-02-22T06:20:22.926Z,70.10
2023-02-22T06:23:50.184Z,70.09
2023-02-22T06:27:17.026Z,70.10
2023-02-22T06:30:52.523Z,70.28
2023-02-22T06:34:22.055Z,70.49
2023-02-22T06:37:49.176Z,70.42
2023-02-22T06:41:16.479Z,70.55
2023-02-22T06:44:44.123Z,70.57
2023-02-22T06:48:10.958Z,70.60
2023-02-22T06:51:40.488Z,70.56
2023-02-22T06:55:07.873Z,70.50
2023-02-22T06:58:34.503Z,70.56
2023-02-22T07:02:01.581Z,70.47
2023-02-22T07:05:29.687Z,70.48
2023-02-22T07:08:56.632Z,70.47
2023-02-22T07:12:24.062Z,70.53
2023-02-22T07:15:50.950Z,70.56
2023-02-22T07:19:17.941Z,70.74
2023-02-22T07:22:44.688Z,70.73
2023-02-22T07:26:12.453Z,70.71
2023-02-22T07:29:40.551Z,70.72
2023-02-22T07:33:09.206Z,70.75
2023-02-22T07:36:36.395Z,70.90
2023-02-22T07:40:04.311Z,71.11
2023-02-22T07:43:32.360Z,71.19
2023-02-22T07:46:59.683Z,71.20
2023-02-22T07:50:30.272Z,71.43
2023-02-22T07:53:56.931Z,71.45
2023-02-22T07:57:24.265Z,71.27
2023-02-22T08:00:51.290Z,71.48
2023-02-22T08:04:18.561Z,71.56
2023-02-22T08:07:45.627Z,71.40
2023-02-22T08:11:13.353Z,71.20
2023-02-22T08:14:40.726Z,71.44
2023-02-22T08:18:11.730Z,71.00
2023-02-22T08:21:38.801Z,70.93
2023-02-22T08:25:06.724Z,70.92
2023-02-22T08:28:36.577Z,70.47
2023-02-22T08:32:03.893Z,70.54
2023-02-22T08:35:32.127Z,69.97
2023-02-22T08:38:59.893Z,70.08
2023-02-22T08:42:26.843Z,70.16
2023-02-22T08:45:57.182Z,69.97
2023-02-22T08:49:24.991Z,70.04
2023-02-22T08:52:53.485Z,69.72
2023-02-22T08:56:23.567Z,69.74
2023-02-22T08:59:51.138Z,69.74
2023-02-22T09:03:18.395Z,69.46
2023-02-22T09:06:48.624Z,69.34
2023-02-22T09:10:17.671Z,69.41
2023-02-22T09:13:44.540Z,69.34
2023-02-22T09:17:11.440Z,69.07
2023-02-22T09:20:39.083Z,69.02
2023-02-22T09:24:08.801Z,69.23
2023-02-22T09:27:35.911Z,69.07
2023-02-22T09:31:03.018Z,68.85
2023-02-22T09:34:30.796Z,68.57
2023-02-22T09:38:00.289Z,68.62
2023-02-22T09:41:36.137Z,68.47
2023-02-22T09:45:13.097Z,68.47
2023-02-22T09:48:51.691Z,68.56
2023-02-22T09:52:25.333Z,68.22
2023-02-22T09:55:52.781Z,67.89
2023-02-22T09:59:26.407Z,67.90
2023-02-22T10:02:55.999Z,67.80
2023-02-22T10:06:26.350Z,68.08
2023-02-22T10:09:56.715Z,68.00
2023-02-22T10:13:35.137Z,67.78
2023-02-22T10:17:12.410Z,67.24
2023-02-22T10:20:52.872Z,67.13
2023-02-22T10:24:39.912Z,67.19
2023-02-22T10:28:15.185Z,66.95
2023-02-22T10:31:46.308Z,66.86
2023-02-22T10:35:23.644Z,66.82
2023-02-22T10:38:58.492Z,66.62
2023-02-22T10:42:29.751Z,66.86
2023-02-22T10:46:01.546Z,66.23
2023-02-22T10:49:35.098Z,66.21
2023-02-22T10:53:02.170Z,66.41
2023-02-22T10:56:31.091Z,66.09
2023-02-22T11:00:19.983Z,66.27
2023-02-22T11:03:57.425Z,66.47
2023-02-22T11:07:30.218Z,66.38
2023-02-22T11:10:59.015Z,66.54
2023-02-22T11:14:33.424Z,66.09
2023-02-22T11:18:02.155Z,65.58
2023-02-22T11:21:32.357Z,65.71
2023-02-22T11:25:04.464Z,65.37
2023-02-22T11:28:33.253Z,65.47
2023-02-22T11:32:01.080Z,65.48
2023-02-22T11:35:39.109Z,65.46
2023-02-22T11:39:06.912Z,65.06
2023-02-22T11:42:34.235Z,64.71
2023-02-22T11:46:08.637Z,64.78
2023-02-22T11:49:39.475Z,64.68
2023-02-22T11:53:23.444Z,64.34
2023-02-22T11:56:53.097Z,64.36
2023-02-22T12:00:25.965Z,64.37
2023-02-22T12:04:33.409Z,63.94
2023-02-22T12:08:19.443Z,64.06
2023-02-22T12:12:00.897Z,63.99
2023-02-22T12:15:33.749Z,63.87
2023-02-22T12:19:18.008Z,63.35
2023-02-22T12:22:55.031Z,63.38
2023-02-22T12:26:27.555Z,63.53
2023-02-22T12:30:01.928Z,62.86
2023-02-22T12:33:35.078Z,62.48
2023-02-22T12:37:13.470Z,62.26
2023-02-22T12:40:50.193Z,62.08
2023-02-22T12:44:23.224Z,61.97
2023-02-22T12:47:52.891Z,61.87
2023-02-22T12:51:29.427Z,61.62
2023-02-22T12:55:02.008Z,61.68
2023-02-22T12:58:36.701Z,61.62
2023-02-22T13:02:14.429Z,61.67
2023-02-22T13:05:43.518Z,61.68
2023-02-22T13:09:28.965Z,61.50
2023-02-22T13:13:05.076Z,61.65
2023-02-22T13:16:44.001Z,61.64
2023-02-22T13:20:19.814Z,61.43
2023-02-22T13:23:54.857Z,61.19
2023-02-22T13:27:26.347Z,61.36
2023-02-22T13:31:06.335Z,61.13
2023-02-22T13:34:50.512Z,61.18
2023-02-22T13:39:01.176Z,61.23
2023-02-22T13:42:50.294Z,61.21
2023-02-22T13:46:41.095Z,61.10
2023-02-22T13:50:45.462Z,60.95
2023-02-22T13:54:17.531Z,60.80
2023-02-22T13:57:49.062Z,60.70
2023-02-22T14:01:44.170Z,60.88
2023-02-22T14:05:39.258Z,61.02
2023-02-22T14:09:11.274Z,60.59
2023-02-22T14:12:53.462Z,60.65
2023-02-22T14:16:29.955Z,60.53
2023-02-22T14:20:35.159Z,60.02
2023-02-22T14:24:11.830Z,59.88
2023-02-22T14:27:45.595Z,59.49
2023-02-22T14:31:33.324Z,59.61
2023-02-22T14:35:02.489Z,59.21
2023-02-22T14:38:32.335Z,59.22
2023-02-22T14:42:12.723Z,59.20
2023-02-22T14:45:47.215Z,59.31
2023-02-22T14:49:19.132Z,59.06
2023-02-22T14:52:47.897Z,59.07
2023-02-22T14:56:23.218Z,58.92
2023-02-22T15:00:08.323Z,59.04
2023-02-22T15:03:37.643Z,58.88
2023-02-22T15:07:27.645Z,58.54
2023-02-22T15:10:56.454Z,58.57
2023-02-22T15:14:27.061Z,58.53
2023-02-22T15:17:58.847Z,58.56
2023-02-22T15:21:29.476Z,58.39
2023-02-22T15:25:03.598Z,58.57
2023-02-22T15:28:32.477Z,58.52
2023-02-22T15:31:59.459Z,58.53
2023-02-22T15:35:30.060Z,58.39
2023-02-22T15:38:59.676Z,58.30
2023-02-22T15:42:28.339Z,58.35
2023-02-22T15:45:57.482Z,58.37
2023-02-22T15:49:26.470Z,58.17
2023-02-22T15:52:59.395Z,58.11
2023-02-22T15:56:31.362Z,58.28
2023-02-22T15:59:59.979Z,58.27
2023-02-22T16:03:33.371Z,58.13
2023-02-22T16:07:17.305Z,58.35
2023-02-22T16:10:49.301Z,58.29
2023-02-22T16:14:31.297Z,58.53
2023-02-22T16:18:02.405Z,58.44
2023-02-22T16:21:50.906Z,58.43
2023-02-22T16:25:33.296Z,58.48
2023-02-22T16:29:03.289Z,58.84
2023-02-22T16:32:30.843Z,58.70
2023-02-22T16:35:58.003Z,58.61
2023-02-22T16:39:28.420Z,58.64
2023-02-22T16:42:56.644Z,58.94
2023-02-22T16:46:23.872Z,58.83
2023-02-22T16:49:55.910Z,59.04
2023-02-22T16:53:25.423Z,59.31
2023-02-22T16:56:52.833Z,59.06
2023-02-22T17:00:31.669Z,58.99
2023-02-22T17:03:59.449Z,59.22
2023-02-22T17:07:30.138Z,59.02
2023-02-22T17:11:04.854Z,59.11
2023-02-22T17:14:36.584Z,59.21
2023-02-22T17:18:06.133Z,59.18
2023-02-22T17:21:33.059Z,59.51
2023-02-22T17:24:59.626Z,59.35
2023-02-22T17:28:28.647Z,59.40
2023-02-22T17:31:56.995Z,59.34
2023-02-22T17:35:27.490Z,59.57
2023-02-22T17:38:57.312Z,59.59
2023-02-22T17:42:24.226Z,59.55
2023-02-22T17:45:51.469Z,59.54
2023-02-22T17:49:18.246Z,59.85
2023-02-22T17:52:46.094Z,59.77
2023-02-22T17:56:16.865Z,59.63
2023-02-22T17:59:43.876Z,59.89
2023-02-22T18:03:13.043Z,60.00
2023-02-22T18:06:40.384Z,59.65
2023-02-22T18:10:12.255Z,59.45
2023-02-22T18:13:39.235Z,59.56
2023-02-22T18:17:07.241Z,59.76
2023-02-22T18:20:39.329Z,59.84
2023-02-22T18:24:07.092Z,59.83
2023-02-22T18:27:33.949Z,59.67
2023-02-22T18:31:01.418Z,59.69
2023-02-22T18:34:31.197Z,59.77
2023-02-22T18:37:58.496Z,59.78
2023-02-22T18:41:28.839Z,59.67
2023-02-22T18:45:03.533Z,59.41
2023-02-22T18:48:33.433Z,59.65
2023-02-22T18:52:01.549Z,59.53
2023-02-22T18:55:33.941Z,59.55
2023-02-22T18:59:05.894Z,59.67
2023-02-22T19:02:34.710Z,59.64
2023-02-22T19:06:09.950Z,59.85
2023-02-22T19:09:40.198Z,60.11
2023-02-22T19:13:13.036Z,59.94
2023-02-22T19:16:49.997Z,59.82
2023-02-22T19:20:20.728Z,60.08
2023-02-22T19:23:50.938Z,59.99
2023-02-22T19:27:19.415Z,60.06
2023-02-22T19:30:56.082Z,59.95
2023-02-22T19:34:28.345Z,59.88
2023-02-22T19:38:00.922Z,59.66
2023-02-22T19:41:35.404Z,60.02
2023-02-22T19:45:03.935Z,60.06
2023-02-22T19:48:36.150Z,60.18
2023-02-22T19:52:13.134Z,59.96
2023-02-22T19:55:42.927Z,59.95
2023-02-22T19:59:14.831Z,60.09
2023-02-22T20:02:53.475Z,59.81
2023-02-22T20:06:26.183Z,59.86
2023-02-22T20:09:57.094Z,60.03
2023-02-22T20:13:28.682Z,60.10
2023-02-22T20:17:08.882Z,59.93
2023-02-22T20:20:42.217Z,59.98
2023-02-22T20:24:19.713Z,59.99
2023-02-22T20:28:00.884Z,60.06
2023-02-22T20:31:32.312Z,60.07
2023-02-22T20:35:02.119Z,60.15
2023-02-22T20:38:33.558Z,60.30
2023-02-22T20:42:05.013Z,60.25
2023-02-22T20:45:37.125Z,60.42
2023-02-22T20:49:13.532Z,60.28
2023-02-22T20:52:46.117Z,60.39
2023-02-22T20:56:18.496Z,60.34
2023-02-22T20:59:49.698Z,60.45
2023-02-22T21:03:21.458Z,60.17
2023-02-22T21:06:51.364Z,60.00
2023-02-22T21:10:21.698Z,60.27
2023-02-22T21:13:51.620Z,60.03
2023-02-22T21:17:29.350Z,60.13
2023-02-22T21:20:58.388Z,59.95
2023-02-22T21:24:29.724Z,60.21
2023-02-22T21:28:02.292Z,60.09
2023-02-22T21:31:35.532Z,59.95
2023-02-22T21:35:03.910Z,60.12
2023-02-22T21:38:34.276Z,60.11
2023-02-22T21:42:02.897Z,60.25
2023-02-22T21:45:31.213Z,60.18
2023-02-22T21:49:06.420Z,60.27
2023-02-22T21:52:37.736Z,60.27
2023-02-22T21:56:10.159Z,60.26
2023-02-22T21:59:39.821Z,60.26
2023-02-22T22:03:11.854Z,60.38
2023-02-22T22:06:43.393Z,60.26
2023-02-22T22:10:18.112Z,60.35
2023-02-22T22:13:52.719Z,60.38
2023-02-22T22:17:23.245Z,60.29
2023-02-22T22:20:53.891Z,60.45
2023-02-22T22:24:23.633Z,60.40
2023-02-22T22:27:51.586Z,60.42
2023-02-22T22:31:24.020Z,60.66
2023-02-22T22:34:52.484Z,60.71
2023-02-22T22:38:21.993Z,60.87
2023-02-22T22:41:55.271Z,61.01
2023-02-22T22:45:28.631Z,60.92
2023-02-22T22:48:58.609Z,60.91
2023-02-22T22:52:33.756Z,60.91
2023-02-22T22:56:15.690Z,60.80
2023-02-22T22:59:48.309Z,60.74
2023-02-22T23:03:23.317Z,60.87
2023-02-22T23:06:54.487Z,60.70
2023-02-22T23:10:28.679Z,60.72
2023-02-22T23:14:04.150Z,60.63
2023-02-22T23:17:41.798Z,60.76
2023-02-22T23:21:10.658Z,60.91
2023-02-22T23:24:44.843Z,60.85
2023-02-22T23:28:16.249Z,60.91
2023-02-22T23:31:44.168Z,60.94
2023-02-22T23:35:14.188Z,61.02
2023-02-22T23:38:42.693Z,61.06
2023-02-22T23:42:10.680Z,60.98
2023-02-22T23:45:46.268Z,61.01
2023-02-22T23:49:17.715Z,61.10
2023-02-22T23:52:46.500Z,60.93
2023-02-22T23:56:15.015Z,61.09
2023-02-22T23:59:42.181Z,61.12
